sensor_id;sensor_type;location;lat;lon;timestamp;P1;durP1;ratioP1;P2;durP2;ratioP2
39102;SDS011;24847;48.218;16.414;2022-12-05T00:00:59;12.52;;;8.25;;
39102;SDS011;24847;48.218;16.414;2022-12-05T00:06:14;12.30;;;8.50;;
39102;SDS011;24847;48.218;16.414;2022-12-05T00:11:18;12.50;;;8.50;;
39102;SDS011;24847;48.218;16.414;2022-12-05T00:16:24;13.68;;;8.82;;
39102;SDS011;24847;48.218;16.414;2022-12-05T00:21:29;14.20;;;9.07;;
39102;SDS011;24847;48.218;16.414;2022-12-05T00:26:34;12.27;;;8.82;;
39102;SDS011;24847;48.218;16.414;2022-12-05T00:31:39;12.88;;;8.45;;
39102;SDS011;24847;48.218;16.414;2022-12-05T00:36:41;13.07;;;9.07;;
39102;SDS011;24847;48.218;16.414;2022-12-05T00:41:43;14.60;;;9.30;;
39102;SDS011;24847;48.218;16.414;2022-12-05T00:46:47;12.85;;;9.15;;
39102;SDS011;24847;48.218;16.414;2022-12-05T00:51:49;12.63;;;9.15;;
39102;SDS011;24847;48.218;16.414;2022-12-05T00:56:51;13.30;;;9.48;;
39102;SDS011;24847;48.218;16.414;2022-12-05T01:01:56;15.63;;;9.43;;
39102;SDS011;24847;48.218;16.414;2022-12-05T01:06:59;13.65;;;9.00;;
39102;SDS011;24847;48.218;16.414;2022-12-05T01:12:01;13.60;;;9.20;;
39102;SDS011;24847;48.218;16.414;2022-12-05T01:17:06;12.88;;;8.90;;
39102;SDS011;24847;48.218;16.414;2022-12-05T01:22:08;12.13;;;8.75;;
39102;SDS011;24847;48.218;16.414;2022-12-05T01:27:10;12.60;;;8.50;;
39102;SDS011;24847;48.218;16.414;2022-12-05T01:32:14;12.02;;;8.57;;
39102;SDS011;24847;48.218;16.414;2022-12-05T01:37:16;13.95;;;8.75;;
39102;SDS011;24847;48.218;16.414;2022-12-05T01:42:19;12.88;;;9.13;;
39102;SDS011;24847;48.218;16.414;2022-12-05T01:47:22;14.23;;;9.50;;
39102;SDS011;24847;48.218;16.414;2022-12-05T01:52:28;13.18;;;9.00;;
39102;SDS011;24847;48.218;16.414;2022-12-05T01:57:32;13.93;;;10.15;;
39102;SDS011;24847;48.218;16.414;2022-12-05T02:02:36;14.43;;;10.10;;
39102;SDS011;24847;48.218;16.414;2022-12-05T02:07:40;12.35;;;9.15;;
39102;SDS011;24847;48.218;16.414;2022-12-05T02:12:43;11.27;;;8.50;;
39102;SDS011;24847;48.218;16.414;2022-12-05T02:17:50;10.05;;;7.68;;
39102;SDS011;24847;48.218;16.414;2022-12-05T02:23:25;10.80;;;8.90;;
39102;SDS011;24847;48.218;16.414;2022-12-05T02:28:43;12.02;;;8.65;;
39102;SDS011;24847;48.218;16.414;2022-12-05T02:34:09;10.80;;;8.15;;
39102;SDS011;24847;48.218;16.414;2022-12-05T02:39:20;10.73;;;8.18;;
39102;SDS011;24847;48.218;16.414;2022-12-05T02:44:31;12.40;;;8.60;;
39102;SDS011;24847;48.218;16.414;2022-12-05T02:49:39;9.63;;;7.47;;
39102;SDS011;24847;48.218;16.414;2022-12-05T02:54:43;9.80;;;7.57;;
39102;SDS011;24847;48.218;16.414;2022-12-05T02:59:49;8.98;;;7.20;;
39102;SDS011;24847;48.218;16.414;2022-12-05T03:04:53;10.98;;;8.48;;
39102;SDS011;24847;48.218;16.414;2022-12-05T03:09:57;10.50;;;8.20;;
39102;SDS011;24847;48.218;16.414;2022-12-05T03:15:04;10.20;;;7.03;;
39102;SDS011;24847;48.218;16.414;2022-12-05T03:20:14;11.18;;;8.70;;
39102;SDS011;24847;48.218;16.414;2022-12-05T03:25:28;9.75;;;7.88;;
39102;SDS011;24847;48.218;16.414;2022-12-05T03:30:37;10.40;;;7.63;;
39102;SDS011;24847;48.218;16.414;2022-12-05T03:35:41;9.57;;;7.55;;
39102;SDS011;24847;48.218;16.414;2022-12-05T03:40:51;8.95;;;7.20;;
39102;SDS011;24847;48.218;16.414;2022-12-05T03:45:57;9.95;;;7.07;;
39102;SDS011;24847;48.218;16.414;2022-12-05T03:51:06;8.45;;;6.57;;
39102;SDS011;24847;48.218;16.414;2022-12-05T03:56:13;9.25;;;6.80;;
39102;SDS011;24847;48.218;16.414;2022-12-05T04:01:20;8.32;;;6.40;;
39102;SDS011;24847;48.218;16.414;2022-12-05T04:06:27;9.30;;;7.15;;
39102;SDS011;24847;48.218;16.414;2022-12-05T04:11:34;9.73;;;7.23;;
39102;SDS011;24847;48.218;16.414;2022-12-05T04:16:42;8.52;;;7.03;;
39102;SDS011;24847;48.218;16.414;2022-12-05T04:22:06;9.00;;;6.72;;
39102;SDS011;24847;48.218;16.414;2022-12-05T04:27:11;9.25;;;6.43;;
39102;SDS011;24847;48.218;16.414;2022-12-05T04:32:26;11.05;;;7.78;;
39102;SDS011;24847;48.218;16.414;2022-12-05T04:37:41;8.63;;;6.75;;
39102;SDS011;24847;48.218;16.414;2022-12-05T04:42:46;9.38;;;7.20;;
39102;SDS011;24847;48.218;16.414;2022-12-05T04:47:53;9.13;;;6.97;;
39102;SDS011;24847;48.218;16.414;2022-12-05T04:53:01;8.27;;;6.63;;
39102;SDS011;24847;48.218;16.414;2022-12-05T04:58:05;10.90;;;8.48;;
39102;SDS011;24847;48.218;16.414;2022-12-05T05:03:12;8.55;;;6.72;;
39102;SDS011;24847;48.218;16.414;2022-12-05T05:08:21;9.93;;;6.40;;
39102;SDS011;24847;48.218;16.414;2022-12-05T05:13:26;8.18;;;6.38;;
39102;SDS011;24847;48.218;16.414;2022-12-05T05:18:28;8.32;;;6.35;;
39102;SDS011;24847;48.218;16.414;2022-12-05T05:23:32;9.80;;;7.35;;
39102;SDS011;24847;48.218;16.414;2022-12-05T05:28:34;12.32;;;7.88;;
39102;SDS011;24847;48.218;16.414;2022-12-05T05:33:37;9.52;;;7.13;;
39102;SDS011;24847;48.218;16.414;2022-12-05T05:38:41;9.50;;;6.80;;
39102;SDS011;24847;48.218;16.414;2022-12-05T05:43:45;10.70;;;8.00;;
39102;SDS011;24847;48.218;16.414;2022-12-05T05:48:48;9.02;;;7.22;;
39102;SDS011;24847;48.218;16.414;2022-12-05T05:53:52;9.27;;;6.57;;
39102;SDS011;24847;48.218;16.414;2022-12-05T05:58:55;9.05;;;6.45;;
39102;SDS011;24847;48.218;16.414;2022-12-05T06:04:00;10.55;;;7.00;;
39102;SDS011;24847;48.218;16.414;2022-12-05T06:09:05;8.93;;;6.53;;
39102;SDS011;24847;48.218;16.414;2022-12-05T06:14:08;11.77;;;8.52;;
39102;SDS011;24847;48.218;16.414;2022-12-05T06:19:10;11.55;;;7.90;;
39102;SDS011;24847;48.218;16.414;2022-12-05T06:24:13;10.73;;;7.70;;
39102;SDS011;24847;48.218;16.414;2022-12-05T06:29:16;13.00;;;7.95;;
39102;SDS011;24847;48.218;16.414;2022-12-05T06:34:21;10.07;;;7.07;;
39102;SDS011;24847;48.218;16.414;2022-12-05T06:39:25;11.48;;;7.68;;
39102;SDS011;24847;48.218;16.414;2022-12-05T06:44:29;10.70;;;7.35;;
39102;SDS011;24847;48.218;16.414;2022-12-05T06:49:32;11.13;;;8.05;;
39102;SDS011;24847;48.218;16.414;2022-12-05T06:54:36;10.57;;;7.78;;
39102;SDS011;24847;48.218;16.414;2022-12-05T06:59:44;10.73;;;7.35;;
39102;SDS011;24847;48.218;16.414;2022-12-05T07:04:49;11.02;;;7.22;;
39102;SDS011;24847;48.218;16.414;2022-12-05T07:09:52;9.95;;;7.47;;
39102;SDS011;24847;48.218;16.414;2022-12-05T07:14:55;11.15;;;8.18;;
39102;SDS011;24847;48.218;16.414;2022-12-05T07:19:57;12.13;;;8.40;;
39102;SDS011;24847;48.218;16.414;2022-12-05T07:25:01;9.30;;;6.50;;
39102;SDS011;24847;48.218;16.414;2022-12-05T07:30:04;12.25;;;7.80;;
39102;SDS011;24847;48.218;16.414;2022-12-05T07:35:08;12.18;;;7.63;;
39102;SDS011;24847;48.218;16.414;2022-12-05T07:40:12;10.52;;;7.60;;
39102;SDS011;24847;48.218;16.414;2022-12-05T07:45:15;12.88;;;8.35;;
39102;SDS011;24847;48.218;16.414;2022-12-05T07:50:17;12.63;;;8.50;;
39102;SDS011;24847;48.218;16.414;2022-12-05T07:55:21;14.25;;;8.45;;
39102;SDS011;24847;48.218;16.414;2022-12-05T08:00:23;12.82;;;8.43;;
39102;SDS011;24847;48.218;16.414;2022-12-05T08:05:26;12.40;;;8.52;;
39102;SDS011;24847;48.218;16.414;2022-12-05T08:10:30;15.98;;;9.57;;
39102;SDS011;24847;48.218;16.414;2022-12-05T08:15:34;16.20;;;9.52;;
39102;SDS011;24847;48.218;16.414;2022-12-05T08:20:37;14.23;;;8.95;;
39102;SDS011;24847;48.218;16.414;2022-12-05T08:25:41;13.55;;;8.07;;
39102;SDS011;24847;48.218;16.414;2022-12-05T08:30:43;16.45;;;9.10;;
39102;SDS011;24847;48.218;16.414;2022-12-05T08:35:46;14.70;;;9.02;;
39102;SDS011;24847;48.218;16.414;2022-12-05T08:40:50;16.75;;;9.95;;
39102;SDS011;24847;48.218;16.414;2022-12-05T08:45:52;13.57;;;9.30;;
39102;SDS011;24847;48.218;16.414;2022-12-05T08:50:55;14.35;;;8.48;;
39102;SDS011;24847;48.218;16.414;2022-12-05T08:56:00;14.25;;;8.63;;
39102;SDS011;24847;48.218;16.414;2022-12-05T09:01:03;14.98;;;8.88;;
39102;SDS011;24847;48.218;16.414;2022-12-05T09:06:08;13.18;;;8.95;;
39102;SDS011;24847;48.218;16.414;2022-12-05T09:11:14;13.85;;;9.15;;
39102;SDS011;24847;48.218;16.414;2022-12-05T09:16:19;15.57;;;9.43;;
39102;SDS011;24847;48.218;16.414;2022-12-05T09:21:29;14.32;;;9.02;;
39102;SDS011;24847;48.218;16.414;2022-12-05T09:26:33;11.55;;;7.97;;
39102;SDS011;24847;48.218;16.414;2022-12-05T09:31:35;13.02;;;7.88;;
39102;SDS011;24847;48.218;16.414;2022-12-05T09:36:42;14.95;;;9.50;;
39102;SDS011;24847;48.218;16.414;2022-12-05T09:47:36;13.02;;;8.52;;
39102;SDS011;24847;48.218;16.414;2022-12-05T09:52:56;11.27;;;7.85;;
39102;SDS011;24847;48.218;16.414;2022-12-05T09:58:18;15.35;;;8.77;;
39102;SDS011;24847;48.218;16.414;2022-12-05T10:03:34;15.25;;;9.82;;
39102;SDS011;24847;48.218;16.414;2022-12-05T10:08:48;14.32;;;9.80;;
39102;SDS011;24847;48.218;16.414;2022-12-05T10:14:08;14.48;;;8.38;;
39102;SDS011;24847;48.218;16.414;2022-12-05T10:19:25;11.98;;;8.05;;
39102;SDS011;24847;48.218;16.414;2022-12-05T10:24:32;11.10;;;7.78;;
39102;SDS011;24847;48.218;16.414;2022-12-05T10:29:44;14.95;;;9.93;;
39102;SDS011;24847;48.218;16.414;2022-12-05T10:34:54;11.93;;;8.02;;
39102;SDS011;24847;48.218;16.414;2022-12-05T10:40:10;13.77;;;9.23;;
39102;SDS011;24847;48.218;16.414;2022-12-05T10:45:16;13.40;;;8.75;;
39102;SDS011;24847;48.218;16.414;2022-12-05T10:50:23;14.63;;;9.63;;
39102;SDS011;24847;48.218;16.414;2022-12-05T10:55:31;15.88;;;10.10;;
39102;SDS011;24847;48.218;16.414;2022-12-05T11:00:39;15.60;;;9.90;;
39102;SDS011;24847;48.218;16.414;2022-12-05T11:05:46;16.00;;;9.98;;
39102;SDS011;24847;48.218;16.414;2022-12-05T11:10:59;17.70;;;10.02;;
39102;SDS011;24847;48.218;16.414;2022-12-05T11:16:05;17.73;;;11.10;;
39102;SDS011;24847;48.218;16.414;2022-12-05T11:21:23;16.90;;;10.43;;
39102;SDS011;24847;48.218;16.414;2022-12-05T11:26:32;16.50;;;10.82;;
39102;SDS011;24847;48.218;16.414;2022-12-05T11:31:37;17.73;;;10.68;;
39102;SDS011;24847;48.218;16.414;2022-12-05T11:36:40;20.55;;;11.65;;
39102;SDS011;24847;48.218;16.414;2022-12-05T11:41:57;18.25;;;11.88;;
39102;SDS011;24847;48.218;16.414;2022-12-05T11:48:07;18.52;;;11.48;;
39102;SDS011;24847;48.218;16.414;2022-12-05T11:53:25;18.13;;;11.50;;
39102;SDS011;24847;48.218;16.414;2022-12-05T11:58:59;19.88;;;11.80;;
39102;SDS011;24847;48.218;16.414;2022-12-05T12:04:26;20.90;;;12.10;;
39102;SDS011;24847;48.218;16.414;2022-12-05T12:09:45;21.23;;;12.48;;
39102;SDS011;24847;48.218;16.414;2022-12-05T12:14:57;20.40;;;11.65;;
39102;SDS011;24847;48.218;16.414;2022-12-05T12:20:14;20.88;;;12.63;;
39102;SDS011;24847;48.218;16.414;2022-12-05T12:25:36;21.67;;;11.73;;
39102;SDS011;24847;48.218;16.414;2022-12-05T12:30:52;21.85;;;12.00;;
39102;SDS011;24847;48.218;16.414;2022-12-05T12:36:13;17.75;;;10.68;;
39102;SDS011;24847;48.218;16.414;2022-12-05T12:41:25;20.35;;;10.77;;
39102;SDS011;24847;48.218;16.414;2022-12-05T12:46:51;20.70;;;11.70;;
39102;SDS011;24847;48.218;16.414;2022-12-05T12:52:00;22.02;;;11.82;;
39102;SDS011;24847;48.218;16.414;2022-12-05T12:57:06;22.92;;;12.75;;
39102;SDS011;24847;48.218;16.414;2022-12-05T13:02:21;18.38;;;10.60;;
39102;SDS011;24847;48.218;16.414;2022-12-05T13:07:37;21.08;;;10.95;;
39102;SDS011;24847;48.218;16.414;2022-12-05T13:12:44;19.48;;;10.20;;
39102;SDS011;24847;48.218;16.414;2022-12-05T13:17:48;17.27;;;10.27;;
39102;SDS011;24847;48.218;16.414;2022-12-05T13:22:53;20.10;;;12.10;;
39102;SDS011;24847;48.218;16.414;2022-12-05T13:27:57;24.55;;;13.10;;
39102;SDS011;24847;48.218;16.414;2022-12-05T13:33:03;21.45;;;11.63;;
39102;SDS011;24847;48.218;16.414;2022-12-05T13:38:17;24.23;;;12.10;;
39102;SDS011;24847;48.218;16.414;2022-12-05T13:43:40;21.42;;;11.68;;
39102;SDS011;24847;48.218;16.414;2022-12-05T13:48:57;23.95;;;14.63;;
39102;SDS011;24847;48.218;16.414;2022-12-05T13:54:05;20.95;;;12.60;;
39102;SDS011;24847;48.218;16.414;2022-12-05T14:04:59;19.38;;;11.45;;
39102;SDS011;24847;48.218;16.414;2022-12-05T14:10:03;20.67;;;11.88;;
39102;SDS011;24847;48.218;16.414;2022-12-05T14:15:22;20.92;;;11.55;;
39102;SDS011;24847;48.218;16.414;2022-12-05T14:26:22;19.38;;;10.38;;
39102;SDS011;24847;48.218;16.414;2022-12-05T14:31:41;17.87;;;9.83;;
39102;SDS011;24847;48.218;16.414;2022-12-05T14:36:59;17.10;;;10.38;;
39102;SDS011;24847;48.218;16.414;2022-12-05T14:42:06;17.60;;;10.32;;
39102;SDS011;24847;48.218;16.414;2022-12-05T14:47:24;17.80;;;10.43;;
39102;SDS011;24847;48.218;16.414;2022-12-05T14:52:30;15.80;;;9.82;;
39102;SDS011;24847;48.218;16.414;2022-12-05T14:57:35;17.95;;;9.90;;
39102;SDS011;24847;48.218;16.414;2022-12-05T15:02:47;16.25;;;9.48;;
39102;SDS011;24847;48.218;16.414;2022-12-05T15:07:54;14.73;;;9.30;;
39102;SDS011;24847;48.218;16.414;2022-12-05T15:13:02;15.38;;;9.52;;
39102;SDS011;24847;48.218;16.414;2022-12-05T15:18:12;14.55;;;8.93;;
39102;SDS011;24847;48.218;16.414;2022-12-05T15:23:40;15.13;;;9.68;;
39102;SDS011;24847;48.218;16.414;2022-12-05T15:28:59;14.57;;;9.10;;
39102;SDS011;24847;48.218;16.414;2022-12-05T15:34:06;13.88;;;8.23;;
39102;SDS011;24847;48.218;16.414;2022-12-05T15:39:17;14.02;;;8.68;;
39102;SDS011;24847;48.218;16.414;2022-12-05T15:44:28;13.20;;;8.02;;
39102;SDS011;24847;48.218;16.414;2022-12-05T15:49:30;9.75;;;6.20;;
39102;SDS011;24847;48.218;16.414;2022-12-05T15:54:32;8.77;;;5.47;;
39102;SDS011;24847;48.218;16.414;2022-12-05T15:59:40;6.80;;;5.15;;
39102;SDS011;24847;48.218;16.414;2022-12-05T16:04:47;8.00;;;6.03;;
39102;SDS011;24847;48.218;16.414;2022-12-05T16:09:54;8.18;;;5.20;;
39102;SDS011;24847;48.218;16.414;2022-12-05T16:15:01;5.88;;;4.38;;
39102;SDS011;24847;48.218;16.414;2022-12-05T16:20:11;6.78;;;5.22;;
39102;SDS011;24847;48.218;16.414;2022-12-05T16:25:25;5.95;;;4.03;;
39102;SDS011;24847;48.218;16.414;2022-12-05T16:30:31;7.50;;;4.88;;
39102;SDS011;24847;48.218;16.414;2022-12-05T16:35:34;5.47;;;4.47;;
39102;SDS011;24847;48.218;16.414;2022-12-05T16:40:40;5.90;;;4.63;;
39102;SDS011;24847;48.218;16.414;2022-12-05T16:45:55;19.27;;;12.15;;
39102;SDS011;24847;48.218;16.414;2022-12-05T16:51:17;8.05;;;6.32;;
39102;SDS011;24847;48.218;16.414;2022-12-05T16:56:21;7.15;;;5.40;;
39102;SDS011;24847;48.218;16.414;2022-12-05T17:01:27;5.43;;;4.38;;
39102;SDS011;24847;48.218;16.414;2022-12-05T17:06:30;5.35;;;3.95;;
39102;SDS011;24847;48.218;16.414;2022-12-05T17:11:33;6.30;;;4.57;;
39102;SDS011;24847;48.218;16.414;2022-12-05T17:16:41;5.82;;;4.43;;
39102;SDS011;24847;48.218;16.414;2022-12-05T17:21:45;5.78;;;4.20;;
39102;SDS011;24847;48.218;16.414;2022-12-05T17:26:48;5.63;;;3.85;;
39102;SDS011;24847;48.218;16.414;2022-12-05T17:31:53;5.53;;;4.28;;
39102;SDS011;24847;48.218;16.414;2022-12-05T17:36:57;5.53;;;4.65;;
39102;SDS011;24847;48.218;16.414;2022-12-05T17:42:02;6.72;;;5.00;;
39102;SDS011;24847;48.218;16.414;2022-12-05T17:47:07;5.90;;;4.78;;
39102;SDS011;24847;48.218;16.414;2022-12-05T17:52:10;17.38;;;12.70;;
39102;SDS011;24847;48.218;16.414;2022-12-05T17:57:12;10.80;;;7.68;;
39102;SDS011;24847;48.218;16.414;2022-12-05T18:02:17;7.85;;;5.90;;
39102;SDS011;24847;48.218;16.414;2022-12-05T18:07:20;7.13;;;5.22;;
39102;SDS011;24847;48.218;16.414;2022-12-05T18:12:24;7.72;;;5.05;;
39102;SDS011;24847;48.218;16.414;2022-12-05T18:17:27;6.60;;;4.75;;
39102;SDS011;24847;48.218;16.414;2022-12-05T18:22:30;5.80;;;4.45;;
39102;SDS011;24847;48.218;16.414;2022-12-05T18:27:33;7.03;;;5.18;;
39102;SDS011;24847;48.218;16.414;2022-12-05T18:32:38;5.88;;;4.85;;
39102;SDS011;24847;48.218;16.414;2022-12-05T18:37:42;7.45;;;5.43;;
39102;SDS011;24847;48.218;16.414;2022-12-05T18:42:45;7.32;;;5.40;;
39102;SDS011;24847;48.218;16.414;2022-12-05T18:47:50;7.13;;;5.38;;
39102;SDS011;24847;48.218;16.414;2022-12-05T18:52:54;9.68;;;5.57;;
39102;SDS011;24847;48.218;16.414;2022-12-05T18:57:57;8.55;;;5.28;;
39102;SDS011;24847;48.218;16.414;2022-12-05T19:03:02;6.72;;;5.28;;
39102;SDS011;24847;48.218;16.414;2022-12-05T19:08:05;6.85;;;4.93;;
39102;SDS011;24847;48.218;16.414;2022-12-05T19:13:08;7.75;;;6.10;;
39102;SDS011;24847;48.218;16.414;2022-12-05T19:18:18;9.00;;;6.88;;
39102;SDS011;24847;48.218;16.414;2022-12-05T19:23:21;10.40;;;7.43;;
39102;SDS011;24847;48.218;16.414;2022-12-05T19:28:24;10.70;;;8.30;;
39102;SDS011;24847;48.218;16.414;2022-12-05T19:33:35;10.95;;;8.48;;
39102;SDS011;24847;48.218;16.414;2022-12-05T19:38:40;13.32;;;9.25;;
39102;SDS011;24847;48.218;16.414;2022-12-05T19:43:46;9.82;;;7.65;;
39102;SDS011;24847;48.218;16.414;2022-12-05T19:48:51;9.80;;;8.13;;
39102;SDS011;24847;48.218;16.414;2022-12-05T19:53:57;8.70;;;7.18;;
39102;SDS011;24847;48.218;16.414;2022-12-05T19:59:04;9.23;;;6.30;;
39102;SDS011;24847;48.218;16.414;2022-12-05T20:04:10;8.70;;;6.25;;
39102;SDS011;24847;48.218;16.414;2022-12-05T20:09:18;8.63;;;6.57;;
39102;SDS011;24847;48.218;16.414;2022-12-05T20:14:24;8.88;;;6.55;;
39102;SDS011;24847;48.218;16.414;2022-12-05T20:19:30;9.80;;;7.15;;
39102;SDS011;24847;48.218;16.414;2022-12-05T20:24:35;10.57;;;7.50;;
39102;SDS011;24847;48.218;16.414;2022-12-05T20:29:39;11.43;;;7.15;;
39102;SDS011;24847;48.218;16.414;2022-12-05T20:34:45;8.10;;;6.18;;
39102;SDS011;24847;48.218;16.414;2022-12-05T20:39:50;8.65;;;6.40;;
39102;SDS011;24847;48.218;16.414;2022-12-05T20:44:54;10.48;;;7.20;;
39102;SDS011;24847;48.218;16.414;2022-12-05T20:49:58;10.52;;;7.15;;
39102;SDS011;24847;48.218;16.414;2022-12-05T20:55:01;8.70;;;6.13;;
39102;SDS011;24847;48.218;16.414;2022-12-05T21:00:07;11.18;;;7.00;;
39102;SDS011;24847;48.218;16.414;2022-12-05T21:05:13;8.77;;;6.22;;
39102;SDS011;24847;48.218;16.414;2022-12-05T21:10:16;12.50;;;7.10;;
39102;SDS011;24847;48.218;16.414;2022-12-05T21:15:19;12.30;;;8.27;;
39102;SDS011;24847;48.218;16.414;2022-12-05T21:20:23;12.10;;;8.02;;
39102;SDS011;24847;48.218;16.414;2022-12-05T21:25:26;9.77;;;7.13;;
39102;SDS011;24847;48.218;16.414;2022-12-05T21:30:29;10.60;;;6.88;;
39102;SDS011;24847;48.218;16.414;2022-12-05T21:35:37;9.73;;;6.55;;
39102;SDS011;24847;48.218;16.414;2022-12-05T21:40:41;9.63;;;6.80;;
39102;SDS011;24847;48.218;16.414;2022-12-05T21:45:43;10.57;;;7.20;;
39102;SDS011;24847;48.218;16.414;2022-12-05T21:50:47;11.07;;;7.57;;
39102;SDS011;24847;48.218;16.414;2022-12-05T21:55:57;10.82;;;7.28;;
39102;SDS011;24847;48.218;16.414;2022-12-05T22:01:00;11.25;;;7.35;;
39102;SDS011;24847;48.218;16.414;2022-12-05T22:06:04;11.05;;;7.60;;
39102;SDS011;24847;48.218;16.414;2022-12-05T22:11:08;11.13;;;7.90;;
39102;SDS011;24847;48.218;16.414;2022-12-05T22:16:13;9.38;;;6.47;;
39102;SDS011;24847;48.218;16.414;2022-12-05T22:21:18;10.93;;;7.00;;
39102;SDS011;24847;48.218;16.414;2022-12-05T22:26:22;12.52;;;9.18;;
39102;SDS011;24847;48.218;16.414;2022-12-05T22:31:26;9.65;;;7.03;;
39102;SDS011;24847;48.218;16.414;2022-12-05T22:36:30;10.60;;;6.78;;
39102;SDS011;24847;48.218;16.414;2022-12-05T22:41:32;8.88;;;5.88;;
39102;SDS011;24847;48.218;16.414;2022-12-05T22:46:34;8.48;;;5.88;;
39102;SDS011;24847;48.218;16.414;2022-12-05T22:51:38;9.68;;;6.20;;
39102;SDS011;24847;48.218;16.414;2022-12-05T22:56:40;8.88;;;5.78;;
39102;SDS011;24847;48.218;16.414;2022-12-05T23:01:42;7.18;;;5.30;;
39102;SDS011;24847;48.218;16.414;2022-12-05T23:06:46;7.85;;;5.30;;
39102;SDS011;24847;48.218;16.414;2022-12-05T23:11:48;6.60;;;4.70;;
39102;SDS011;24847;48.218;16.414;2022-12-05T23:16:50;5.22;;;3.78;;
39102;SDS011;24847;48.218;16.414;2022-12-05T23:21:54;3.15;;;2.58;;
39102;SDS011;24847;48.218;16.414;2022-12-05T23:26:56;3.45;;;2.63;;
39102;SDS011;24847;48.218;16.414;2022-12-05T23:31:59;3.10;;;2.38;;
39102;SDS011;24847;48.218;16.414;2022-12-05T23:37:02;4.85;;;2.80;;
39102;SDS011;24847;48.218;16.414;2022-12-05T23:42:05;3.05;;;2.05;;
39102;SDS011;24847;48.218;16.414;2022-12-05T23:47:09;2.97;;;2.00;;
39102;SDS011;24847;48.218;16.414;2022-12-05T23:52:13;3.30;;;1.80;;
39102;SDS011;24847;48.218;16.414;2022-12-05T23:57:15;2.65;;;1.85;;
